<?xml version="1.0" encoding="UTF-8" standalone="no" ?>
<gpx xmlns="http://www.topografix.com/GPX/1/1" xmlns:xsi="http://www.w3.org/2001/XMLSchema-instance" xsi:schemaLocation="http://www.topografix.com/GPX/1/1 http://www.topografix.com/GPX/1/1/gpx.xsd" version="1.1" creator="VisuGPX - https://www.visugpx.com">
  <metadata>
    <name>Chamroussse-La Botte-Les Vans</name>
    <desc><![CDATA[Réalisée avec le CAFGI.]]></desc>
  </metadata>
  <trk>
    <name><![CDATA[Trk-081011-RB]]></name>
    <extensions>
      <line xmlns="http://www.topografix.com/GPX/gpx_style/0/2">
        <color>0000FF</color>
        <width>4</width>
      </line>
    </extensions>
    <trkseg>
      <trkpt lat="45.1062" lon="5.87543">
        <ele>1738</ele>
        <time>2008-10-11T08:07:31.000Z</time>
      </trkpt>
      <trkpt lat="45.10625" lon="5.87549">
        <ele>1738</ele>
        <time>2008-10-11T08:10:39.000Z</time>
      </trkpt>
      <trkpt lat="45.10608" lon="5.8756">
        <ele>1738</ele>
        <time>2008-10-11T08:12:47.000Z</time>
      </trkpt>
      <trkpt lat="45.10572" lon="5.87567">
        <ele>1737</ele>
        <time>2008-10-11T08:13:20.000Z</time>
      </trkpt>
      <trkpt lat="45.10537" lon="5.87578">
        <ele>1738</ele>
        <time>2008-10-11T08:13:50.000Z</time>
      </trkpt>
      <trkpt lat="45.10506" lon="5.87602">
        <ele>1739</ele>
        <time>2008-10-11T08:14:20.000Z</time>
      </trkpt>
      <trkpt lat="45.10486" lon="5.87645">
        <ele>1740</ele>
        <time>2008-10-11T08:14:49.000Z</time>
      </trkpt>
      <trkpt lat="45.10467" lon="5.87688">
        <ele>1742</ele>
        <time>2008-10-11T08:15:18.000Z</time>
      </trkpt>
      <trkpt lat="45.1046" lon="5.87738">
        <ele>1745</ele>
        <time>2008-10-11T08:15:52.000Z</time>
      </trkpt>
      <trkpt lat="45.10454" lon="5.87788">
        <ele>1748</ele>
        <time>2008-10-11T08:16:28.000Z</time>
      </trkpt>
      <trkpt lat="45.10451" lon="5.87835">
        <ele>1751</ele>
        <time>2008-10-11T08:17:06.000Z</time>
      </trkpt>
      <trkpt lat="45.1048" lon="5.8786">
        <ele>1755</ele>
        <time>2008-10-11T08:17:52.000Z</time>
      </trkpt>
      <trkpt lat="45.10488" lon="5.87906">
        <ele>1759</ele>
        <time>2008-10-11T08:18:40.000Z</time>
      </trkpt>
      <trkpt lat="45.10495" lon="5.87954">
        <ele>1762</ele>
        <time>2008-10-11T08:19:20.000Z</time>
      </trkpt>
      <trkpt lat="45.105" lon="5.88006">
        <ele>1765</ele>
        <time>2008-10-11T08:19:58.000Z</time>
      </trkpt>
      <trkpt lat="45.10504" lon="5.88056">
        <ele>1768</ele>
        <time>2008-10-11T08:20:34.000Z</time>
      </trkpt>
      <trkpt lat="45.10507" lon="5.88107">
        <ele>1771</ele>
        <time>2008-10-11T08:21:08.000Z</time>
      </trkpt>
      <trkpt lat="45.10512" lon="5.88158">
        <ele>1772</ele>
        <time>2008-10-11T08:21:39.000Z</time>
      </trkpt>
      <trkpt lat="45.10533" lon="5.88198">
        <ele>1774</ele>
        <time>2008-10-11T08:22:11.000Z</time>
      </trkpt>
      <trkpt lat="45.10542" lon="5.88246">
        <ele>1776</ele>
        <time>2008-10-11T08:22:45.000Z</time>
      </trkpt>
      <trkpt lat="45.10561" lon="5.88285">
        <ele>1778</ele>
        <time>2008-10-11T08:23:22.000Z</time>
      </trkpt>
      <trkpt lat="45.10586" lon="5.8832">
        <ele>1781</ele>
        <time>2008-10-11T08:24:09.000Z</time>
      </trkpt>
      <trkpt lat="45.10616" lon="5.88348">
        <ele>1784</ele>
        <time>2008-10-11T08:25:11.000Z</time>
      </trkpt>
      <trkpt lat="45.10647" lon="5.88377">
        <ele>1788</ele>
        <time>2008-10-11T08:25:57.000Z</time>
      </trkpt>
      <trkpt lat="45.10682" lon="5.88394">
        <ele>1791</ele>
        <time>2008-10-11T08:26:37.000Z</time>
      </trkpt>
      <trkpt lat="45.10705" lon="5.88436">
        <ele>1794</ele>
        <time>2008-10-11T08:27:21.000Z</time>
      </trkpt>
      <trkpt lat="45.10725" lon="5.88485">
        <ele>1797</ele>
        <time>2008-10-11T08:28:04.000Z</time>
      </trkpt>
      <trkpt lat="45.1073" lon="5.88538">
        <ele>1799</ele>
        <time>2008-10-11T08:28:42.000Z</time>
      </trkpt>
      <trkpt lat="45.10742" lon="5.88586">
        <ele>1801</ele>
        <time>2008-10-11T08:29:30.000Z</time>
      </trkpt>
      <trkpt lat="45.10753" lon="5.88634">
        <ele>1804</ele>
        <time>2008-10-11T08:30:24.000Z</time>
      </trkpt>
      <trkpt lat="45.1077" lon="5.88676">
        <ele>1806</ele>
        <time>2008-10-11T08:31:30.000Z</time>
      </trkpt>
      <trkpt lat="45.1079" lon="5.88714">
        <ele>1808</ele>
        <time>2008-10-11T08:32:20.000Z</time>
      </trkpt>
      <trkpt lat="45.10813" lon="5.88767">
        <ele>1810</ele>
        <time>2008-10-11T08:33:39.000Z</time>
      </trkpt>
      <trkpt lat="45.1081" lon="5.88821">
        <ele>1812</ele>
        <time>2008-10-11T08:34:36.000Z</time>
      </trkpt>
      <trkpt lat="45.10814" lon="5.88863">
        <ele>1813</ele>
        <time>2008-10-11T08:38:22.000Z</time>
      </trkpt>
      <trkpt lat="45.10835" lon="5.88908">
        <ele>1814</ele>
        <time>2008-10-11T08:39:26.000Z</time>
      </trkpt>
      <trkpt lat="45.1086" lon="5.88949">
        <ele>1816</ele>
        <time>2008-10-11T08:40:11.000Z</time>
      </trkpt>
      <trkpt lat="45.10867" lon="5.89">
        <ele>1818</ele>
        <time>2008-10-11T08:40:56.000Z</time>
      </trkpt>
      <trkpt lat="45.10874" lon="5.89049">
        <ele>1820</ele>
        <time>2008-10-11T08:41:40.000Z</time>
      </trkpt>
      <trkpt lat="45.10903" lon="5.89084">
        <ele>1822</ele>
        <time>2008-10-11T08:42:30.000Z</time>
      </trkpt>
      <trkpt lat="45.10932" lon="5.89123">
        <ele>1826</ele>
        <time>2008-10-11T08:43:19.000Z</time>
      </trkpt>
      <trkpt lat="45.10936" lon="5.89177">
        <ele>1832</ele>
        <time>2008-10-11T08:44:14.000Z</time>
      </trkpt>
      <trkpt lat="45.10963" lon="5.89229">
        <ele>1839</ele>
        <time>2008-10-11T08:46:35.000Z</time>
      </trkpt>
      <trkpt lat="45.10974" lon="5.89273">
        <ele>1845</ele>
        <time>2008-10-11T08:48:09.000Z</time>
      </trkpt>
      <trkpt lat="45.11001" lon="5.89301">
        <ele>1852</ele>
        <time>2008-10-11T08:50:48.000Z</time>
      </trkpt>
      <trkpt lat="45.1099" lon="5.89352">
        <ele>1861</ele>
        <time>2008-10-11T08:51:56.000Z</time>
      </trkpt>
      <trkpt lat="45.11001" lon="5.89389">
        <ele>1866</ele>
        <time>2008-10-11T08:53:25.000Z</time>
      </trkpt>
      <trkpt lat="45.10999" lon="5.89431">
        <ele>1872</ele>
        <time>2008-10-11T08:54:36.000Z</time>
      </trkpt>
      <trkpt lat="45.11009" lon="5.89478">
        <ele>1878</ele>
        <time>2008-10-11T08:55:20.000Z</time>
      </trkpt>
      <trkpt lat="45.11025" lon="5.89521">
        <ele>1884</ele>
        <time>2008-10-11T08:56:04.000Z</time>
      </trkpt>
      <trkpt lat="45.11045" lon="5.89568">
        <ele>1889</ele>
        <time>2008-10-11T08:57:45.000Z</time>
      </trkpt>
      <trkpt lat="45.11051" lon="5.89621">
        <ele>1894</ele>
        <time>2008-10-11T08:59:12.000Z</time>
      </trkpt>
      <trkpt lat="45.11064" lon="5.89667">
        <ele>1898</ele>
        <time>2008-10-11T08:59:56.000Z</time>
      </trkpt>
      <trkpt lat="45.11072" lon="5.89711">
        <ele>1901</ele>
        <time>2008-10-11T09:00:54.000Z</time>
      </trkpt>
      <trkpt lat="45.1108" lon="5.8977">
        <ele>1905</ele>
        <time>2008-10-11T09:01:57.000Z</time>
      </trkpt>
      <trkpt lat="45.11092" lon="5.89818">
        <ele>1908</ele>
        <time>2008-10-11T09:03:05.000Z</time>
      </trkpt>
      <trkpt lat="45.11114" lon="5.8986">
        <ele>1910</ele>
        <time>2008-10-11T09:04:03.000Z</time>
      </trkpt>
      <trkpt lat="45.11134" lon="5.89898">
        <ele>1912</ele>
        <time>2008-10-11T09:04:55.000Z</time>
      </trkpt>
      <trkpt lat="45.11153" lon="5.89928">
        <ele>1912</ele>
        <time>2008-10-11T09:05:49.000Z</time>
      </trkpt>
      <trkpt lat="45.11165" lon="5.89959">
        <ele>1912</ele>
        <time>2008-10-11T09:06:39.000Z</time>
      </trkpt>
      <trkpt lat="45.11176" lon="5.90003">
        <ele>1913</ele>
        <time>2008-10-11T09:07:26.000Z</time>
      </trkpt>
      <trkpt lat="45.11206" lon="5.90028">
        <ele>1913</ele>
        <time>2008-10-11T09:08:26.000Z</time>
      </trkpt>
      <trkpt lat="45.11242" lon="5.90047">
        <ele>1915</ele>
        <time>2008-10-11T09:09:27.000Z</time>
      </trkpt>
      <trkpt lat="45.11265" lon="5.90084">
        <ele>1916</ele>
        <time>2008-10-11T09:10:09.000Z</time>
      </trkpt>
      <trkpt lat="45.11285" lon="5.90125">
        <ele>1918</ele>
        <time>2008-10-11T09:10:47.000Z</time>
      </trkpt>
      <trkpt lat="45.11291" lon="5.9017">
        <ele>1921</ele>
        <time>2008-10-11T09:12:08.000Z</time>
      </trkpt>
      <trkpt lat="45.11303" lon="5.90215">
        <ele>1924</ele>
        <time>2008-10-11T09:13:01.000Z</time>
      </trkpt>
      <trkpt lat="45.11314" lon="5.90242">
        <ele>1926</ele>
        <time>2008-10-11T09:18:41.000Z</time>
      </trkpt>
      <trkpt lat="45.11345" lon="5.90266">
        <ele>1932</ele>
        <time>2008-10-11T09:19:21.000Z</time>
      </trkpt>
      <trkpt lat="45.11376" lon="5.90287">
        <ele>1937</ele>
        <time>2008-10-11T09:20:24.000Z</time>
      </trkpt>
      <trkpt lat="45.11402" lon="5.90311">
        <ele>1942</ele>
        <time>2008-10-11T09:21:40.000Z</time>
      </trkpt>
      <trkpt lat="45.11431" lon="5.90342">
        <ele>1947</ele>
        <time>2008-10-11T09:22:35.000Z</time>
      </trkpt>
      <trkpt lat="45.1145" lon="5.90372">
        <ele>1952</ele>
        <time>2008-10-11T09:23:25.000Z</time>
      </trkpt>
      <trkpt lat="45.11483" lon="5.90391">
        <ele>1957</ele>
        <time>2008-10-11T09:24:16.000Z</time>
      </trkpt>
      <trkpt lat="45.11505" lon="5.90429">
        <ele>1962</ele>
        <time>2008-10-11T09:25:00.000Z</time>
      </trkpt>
      <trkpt lat="45.11537" lon="5.90452">
        <ele>1967</ele>
        <time>2008-10-11T09:25:53.000Z</time>
      </trkpt>
      <trkpt lat="45.11572" lon="5.90456">
        <ele>1973</ele>
        <time>2008-10-11T09:26:40.000Z</time>
      </trkpt>
      <trkpt lat="45.11606" lon="5.90463">
        <ele>1980</ele>
        <time>2008-10-11T09:27:29.000Z</time>
      </trkpt>
      <trkpt lat="45.11638" lon="5.9048">
        <ele>1987</ele>
        <time>2008-10-11T09:28:32.000Z</time>
      </trkpt>
      <trkpt lat="45.11672" lon="5.9049">
        <ele>1995</ele>
        <time>2008-10-11T09:29:38.000Z</time>
      </trkpt>
      <trkpt lat="45.11704" lon="5.90507">
        <ele>2003</ele>
        <time>2008-10-11T09:30:41.000Z</time>
      </trkpt>
      <trkpt lat="45.11732" lon="5.90538">
        <ele>2010</ele>
        <time>2008-10-11T09:31:48.000Z</time>
      </trkpt>
      <trkpt lat="45.1176" lon="5.90563">
        <ele>2017</ele>
        <time>2008-10-11T09:33:04.000Z</time>
      </trkpt>
      <trkpt lat="45.11784" lon="5.90586">
        <ele>2021</ele>
        <time>2008-10-11T09:34:47.000Z</time>
      </trkpt>
      <trkpt lat="45.11799" lon="5.90605">
        <ele>2023</ele>
        <time>2008-10-11T09:39:34.000Z</time>
      </trkpt>
      <trkpt lat="45.11823" lon="5.90642">
        <ele>2027</ele>
        <time>2008-10-11T09:40:13.000Z</time>
      </trkpt>
      <trkpt lat="45.11858" lon="5.90661">
        <ele>2030</ele>
        <time>2008-10-11T09:40:58.000Z</time>
      </trkpt>
      <trkpt lat="45.11875" lon="5.90699">
        <ele>2033</ele>
        <time>2008-10-11T09:41:48.000Z</time>
      </trkpt>
      <trkpt lat="45.11906" lon="5.90723">
        <ele>2037</ele>
        <time>2008-10-11T09:42:38.000Z</time>
      </trkpt>
      <trkpt lat="45.11932" lon="5.90753">
        <ele>2042</ele>
        <time>2008-10-11T09:43:47.000Z</time>
      </trkpt>
      <trkpt lat="45.11959" lon="5.90781">
        <ele>2047</ele>
        <time>2008-10-11T09:44:52.000Z</time>
      </trkpt>
      <trkpt lat="45.1197" lon="5.90824">
        <ele>2052</ele>
        <time>2008-10-11T09:46:42.000Z</time>
      </trkpt>
      <trkpt lat="45.11999" lon="5.90848">
        <ele>2057</ele>
        <time>2008-10-11T09:48:02.000Z</time>
      </trkpt>
      <trkpt lat="45.12025" lon="5.90842">
        <ele>2062</ele>
        <time>2008-10-11T09:49:31.000Z</time>
      </trkpt>
      <trkpt lat="45.12054" lon="5.90861">
        <ele>2065</ele>
        <time>2008-10-11T09:50:24.000Z</time>
      </trkpt>
      <trkpt lat="45.12084" lon="5.90883">
        <ele>2067</ele>
        <time>2008-10-11T09:51:10.000Z</time>
      </trkpt>
      <trkpt lat="45.12106" lon="5.90921">
        <ele>2069</ele>
        <time>2008-10-11T09:51:59.000Z</time>
      </trkpt>
      <trkpt lat="45.12133" lon="5.90941">
        <ele>2070</ele>
        <time>2008-10-11T09:52:57.000Z</time>
      </trkpt>
      <trkpt lat="45.12159" lon="5.90966">
        <ele>2072</ele>
        <time>2008-10-11T09:53:54.000Z</time>
      </trkpt>
      <trkpt lat="45.12191" lon="5.90977">
        <ele>2074</ele>
        <time>2008-10-11T09:55:07.000Z</time>
      </trkpt>
      <trkpt lat="45.12215" lon="5.90991">
        <ele>2075</ele>
        <time>2008-10-11T09:56:15.000Z</time>
      </trkpt>
      <trkpt lat="45.12243" lon="5.91002">
        <ele>2076</ele>
        <time>2008-10-11T09:57:10.000Z</time>
      </trkpt>
      <trkpt lat="45.12274" lon="5.91016">
        <ele>2078</ele>
        <time>2008-10-11T09:58:31.000Z</time>
      </trkpt>
      <trkpt lat="45.12303" lon="5.91043">
        <ele>2080</ele>
        <time>2008-10-11T09:59:03.000Z</time>
      </trkpt>
      <trkpt lat="45.12337" lon="5.91049">
        <ele>2084</ele>
        <time>2008-10-11T09:59:49.000Z</time>
      </trkpt>
      <trkpt lat="45.12371" lon="5.91037">
        <ele>2088</ele>
        <time>2008-10-11T10:00:44.000Z</time>
      </trkpt>
      <trkpt lat="45.12396" lon="5.91001">
        <ele>2095</ele>
        <time>2008-10-11T10:01:26.000Z</time>
      </trkpt>
      <trkpt lat="45.12411" lon="5.90953">
        <ele>2104</ele>
        <time>2008-10-11T10:02:53.000Z</time>
      </trkpt>
      <trkpt lat="45.12433" lon="5.90903">
        <ele>2115</ele>
        <time>2008-10-11T10:04:56.000Z</time>
      </trkpt>
      <trkpt lat="45.1245" lon="5.90915">
        <ele>2120</ele>
        <time>2008-10-11T10:07:19.000Z</time>
      </trkpt>
      <trkpt lat="45.12467" lon="5.90952">
        <ele>2128</ele>
        <time>2008-10-11T10:08:25.000Z</time>
      </trkpt>
      <trkpt lat="45.12486" lon="5.90928">
        <ele>2135</ele>
        <time>2008-10-11T10:09:35.000Z</time>
      </trkpt>
      <trkpt lat="45.12507" lon="5.90967">
        <ele>2143</ele>
        <time>2008-10-11T10:10:28.000Z</time>
      </trkpt>
      <trkpt lat="45.12521" lon="5.91012">
        <ele>2149</ele>
        <time>2008-10-11T10:11:16.000Z</time>
      </trkpt>
      <trkpt lat="45.12517" lon="5.91059">
        <ele>2155</ele>
        <time>2008-10-11T10:12:11.000Z</time>
      </trkpt>
      <trkpt lat="45.12512" lon="5.91109">
        <ele>2158</ele>
        <time>2008-10-11T10:13:03.000Z</time>
      </trkpt>
      <trkpt lat="45.12508" lon="5.91157">
        <ele>2160</ele>
        <time>2008-10-11T10:13:47.000Z</time>
      </trkpt>
      <trkpt lat="45.12499" lon="5.91198">
        <ele>2161</ele>
        <time>2008-10-11T10:21:21.000Z</time>
      </trkpt>
      <trkpt lat="45.12521" lon="5.91222">
        <ele>2160</ele>
        <time>2008-10-11T10:22:29.000Z</time>
      </trkpt>
      <trkpt lat="45.12547" lon="5.91253">
        <ele>2156</ele>
        <time>2008-10-11T10:23:09.000Z</time>
      </trkpt>
      <trkpt lat="45.12572" lon="5.91287">
        <ele>2152</ele>
        <time>2008-10-11T10:23:52.000Z</time>
      </trkpt>
      <trkpt lat="45.12591" lon="5.91324">
        <ele>2148</ele>
        <time>2008-10-11T10:24:32.000Z</time>
      </trkpt>
      <trkpt lat="45.12604" lon="5.91369">
        <ele>2145</ele>
        <time>2008-10-11T10:25:16.000Z</time>
      </trkpt>
      <trkpt lat="45.12627" lon="5.91401">
        <ele>2141</ele>
        <time>2008-10-11T10:25:53.000Z</time>
      </trkpt>
      <trkpt lat="45.12649" lon="5.91439">
        <ele>2138</ele>
        <time>2008-10-11T10:26:28.000Z</time>
      </trkpt>
      <trkpt lat="45.12666" lon="5.91483">
        <ele>2136</ele>
        <time>2008-10-11T10:27:01.000Z</time>
      </trkpt>
      <trkpt lat="45.12674" lon="5.91531">
        <ele>2134</ele>
        <time>2008-10-11T10:27:38.000Z</time>
      </trkpt>
      <trkpt lat="45.12683" lon="5.91575">
        <ele>2133</ele>
        <time>2008-10-11T10:28:32.000Z</time>
      </trkpt>
      <trkpt lat="45.12696" lon="5.9162">
        <ele>2130</ele>
        <time>2008-10-11T10:29:36.000Z</time>
      </trkpt>
      <trkpt lat="45.12708" lon="5.91661">
        <ele>2128</ele>
        <time>2008-10-11T10:30:25.000Z</time>
      </trkpt>
      <trkpt lat="45.12722" lon="5.91703">
        <ele>2125</ele>
        <time>2008-10-11T10:31:08.000Z</time>
      </trkpt>
      <trkpt lat="45.12736" lon="5.91747">
        <ele>2122</ele>
        <time>2008-10-11T10:31:48.000Z</time>
      </trkpt>
      <trkpt lat="45.12756" lon="5.91782">
        <ele>2119</ele>
        <time>2008-10-11T10:32:30.000Z</time>
      </trkpt>
      <trkpt lat="45.12775" lon="5.9182">
        <ele>2117</ele>
        <time>2008-10-11T10:33:08.000Z</time>
      </trkpt>
      <trkpt lat="45.12789" lon="5.91852">
        <ele>2115</ele>
        <time>2008-10-11T10:34:02.000Z</time>
      </trkpt>
      <trkpt lat="45.12813" lon="5.91881">
        <ele>2113</ele>
        <time>2008-10-11T10:34:50.000Z</time>
      </trkpt>
      <trkpt lat="45.12835" lon="5.91923">
        <ele>2113</ele>
        <time>2008-10-11T10:35:31.000Z</time>
      </trkpt>
      <trkpt lat="45.12854" lon="5.91964">
        <ele>2115</ele>
        <time>2008-10-11T10:36:08.000Z</time>
      </trkpt>
      <trkpt lat="45.12866" lon="5.91967">
        <ele>2116</ele>
        <time>2008-10-11T10:41:54.000Z</time>
      </trkpt>
      <trkpt lat="45.12856" lon="5.92006">
        <ele>2123</ele>
        <time>2008-10-11T10:44:03.000Z</time>
      </trkpt>
      <trkpt lat="45.12851" lon="5.92037">
        <ele>2130</ele>
        <time>2008-10-11T10:45:29.000Z</time>
      </trkpt>
      <trkpt lat="45.12853" lon="5.92062">
        <ele>2137</ele>
        <time>2008-10-11T10:47:25.000Z</time>
      </trkpt>
      <trkpt lat="45.12845" lon="5.92092">
        <ele>2145</ele>
        <time>2008-10-11T10:49:33.000Z</time>
      </trkpt>
      <trkpt lat="45.12835" lon="5.9213">
        <ele>2155</ele>
        <time>2008-10-11T10:52:03.000Z</time>
      </trkpt>
      <trkpt lat="45.12822" lon="5.92164">
        <ele>2165</ele>
        <time>2008-10-11T10:53:23.000Z</time>
      </trkpt>
      <trkpt lat="45.12816" lon="5.92145">
        <ele>2169</ele>
        <time>2008-10-11T10:55:59.000Z</time>
      </trkpt>
      <trkpt lat="45.12821" lon="5.92186">
        <ele>2174</ele>
        <time>2008-10-11T10:59:46.000Z</time>
      </trkpt>
      <trkpt lat="45.12825" lon="5.92231">
        <ele>2179</ele>
        <time>2008-10-11T11:01:00.000Z</time>
      </trkpt>
      <trkpt lat="45.12821" lon="5.92263">
        <ele>2184</ele>
        <time>2008-10-11T11:02:36.000Z</time>
      </trkpt>
      <trkpt lat="45.12836" lon="5.9229">
        <ele>2193</ele>
        <time>2008-10-11T11:04:29.000Z</time>
      </trkpt>
      <trkpt lat="45.12844" lon="5.92316">
        <ele>2201</ele>
        <time>2008-10-11T11:07:16.000Z</time>
      </trkpt>
      <trkpt lat="45.12847" lon="5.92344">
        <ele>2210</ele>
        <time>2008-10-11T11:09:53.000Z</time>
      </trkpt>
      <trkpt lat="45.12862" lon="5.92378">
        <ele>2222</ele>
        <time>2008-10-11T11:11:33.000Z</time>
      </trkpt>
      <trkpt lat="45.1286" lon="5.92419">
        <ele>2234</ele>
        <time>2008-10-11T11:12:59.000Z</time>
      </trkpt>
      <trkpt lat="45.1286" lon="5.92464">
        <ele>2246</ele>
        <time>2008-10-11T11:14:19.000Z</time>
      </trkpt>
      <trkpt lat="45.12872" lon="5.92508">
        <ele>2256</ele>
        <time>2008-10-11T11:15:31.000Z</time>
      </trkpt>
      <trkpt lat="45.12878" lon="5.92553">
        <ele>2266</ele>
        <time>2008-10-11T11:16:34.000Z</time>
      </trkpt>
      <trkpt lat="45.12871" lon="5.92572">
        <ele>2270</ele>
        <time>2008-10-11T11:21:09.000Z</time>
      </trkpt>
      <trkpt lat="45.12885" lon="5.92618">
        <ele>2280</ele>
        <time>2008-10-11T11:22:44.000Z</time>
      </trkpt>
      <trkpt lat="45.129" lon="5.92639">
        <ele>2286</ele>
        <time>2008-10-11T11:24:09.000Z</time>
      </trkpt>
      <trkpt lat="45.12915" lon="5.92654">
        <ele>2292</ele>
        <time>2008-10-11T11:26:05.000Z</time>
      </trkpt>
      <trkpt lat="45.12907" lon="5.92689">
        <ele>2301</ele>
        <time>2008-10-11T11:27:17.000Z</time>
      </trkpt>
      <trkpt lat="45.12913" lon="5.92728">
        <ele>2311</ele>
        <time>2008-10-11T11:28:49.000Z</time>
      </trkpt>
      <trkpt lat="45.12909" lon="5.92757">
        <ele>2318</ele>
        <time>2008-10-11T11:29:32.000Z</time>
      </trkpt>
      <trkpt lat="45.12909" lon="5.92801">
        <ele>2328</ele>
        <time>2008-10-11T11:30:50.000Z</time>
      </trkpt>
      <trkpt lat="45.12906" lon="5.92837">
        <ele>2336</ele>
        <time>2008-10-11T11:35:14.000Z</time>
      </trkpt>
      <trkpt lat="45.12909" lon="5.92888">
        <ele>2348</ele>
        <time>2008-10-11T11:36:46.000Z</time>
      </trkpt>
      <trkpt lat="45.12909" lon="5.92902">
        <ele>2351</ele>
        <time>2008-10-11T11:37:46.000Z</time>
      </trkpt>
      <trkpt lat="45.12907" lon="5.92901">
        <ele>2351</ele>
        <time>2008-10-11T11:39:21.000Z</time>
      </trkpt>
      <trkpt lat="45.12901" lon="5.92947">
        <ele>2362</ele>
        <time>2008-10-11T11:40:24.000Z</time>
      </trkpt>
      <trkpt lat="45.12908" lon="5.92983">
        <ele>2371</ele>
        <time>2008-10-11T11:41:58.000Z</time>
      </trkpt>
      <trkpt lat="45.12936" lon="5.92982">
        <ele>2381</ele>
        <time>2008-10-11T11:43:44.000Z</time>
      </trkpt>
      <trkpt lat="45.12932" lon="5.93014">
        <ele>2389</ele>
        <time>2008-10-11T11:45:14.000Z</time>
      </trkpt>
      <trkpt lat="45.12916" lon="5.93047">
        <ele>2399</ele>
        <time>2008-10-11T11:47:00.000Z</time>
      </trkpt>
      <trkpt lat="45.1292" lon="5.9308">
        <ele>2407</ele>
        <time>2008-10-11T11:48:44.000Z</time>
      </trkpt>
      <trkpt lat="45.12941" lon="5.93103">
        <ele>2415</ele>
        <time>2008-10-11T11:49:40.000Z</time>
      </trkpt>
      <trkpt lat="45.12958" lon="5.93102">
        <ele>2419</ele>
        <time>2008-10-11T11:52:14.000Z</time>
      </trkpt>
      <trkpt lat="45.12993" lon="5.93109">
        <ele>2428</ele>
        <time>2008-10-11T11:53:43.000Z</time>
      </trkpt>
      <trkpt lat="45.13028" lon="5.93103">
        <ele>2435</ele>
        <time>2008-10-11T11:54:40.000Z</time>
      </trkpt>
      <trkpt lat="45.13063" lon="5.93098">
        <ele>2441</ele>
        <time>2008-10-11T11:55:36.000Z</time>
      </trkpt>
      <trkpt lat="45.13091" lon="5.93098">
        <ele>2446</ele>
        <time>2008-10-11T11:57:47.000Z</time>
      </trkpt>
      <trkpt lat="45.13104" lon="5.93113">
        <ele>2448</ele>
        <time>2008-10-11T12:01:46.000Z</time>
      </trkpt>
      <trkpt lat="45.13102" lon="5.93116">
        <ele>2448</ele>
        <time>2008-10-11T12:02:42.000Z</time>
      </trkpt>
      <trkpt lat="45.131" lon="5.93113">
        <ele>2448</ele>
        <time>2008-10-11T12:47:55.000Z</time>
      </trkpt>
      <trkpt lat="45.13084" lon="5.93092">
        <ele>2443</ele>
        <time>2008-10-11T12:50:51.000Z</time>
      </trkpt>
      <trkpt lat="45.13054" lon="5.93084">
        <ele>2435</ele>
        <time>2008-10-11T12:52:36.000Z</time>
      </trkpt>
      <trkpt lat="45.13038" lon="5.93047">
        <ele>2426</ele>
        <time>2008-10-11T12:57:03.000Z</time>
      </trkpt>
      <trkpt lat="45.13016" lon="5.93008">
        <ele>2415</ele>
        <time>2008-10-11T12:58:18.000Z</time>
      </trkpt>
      <trkpt lat="45.13008" lon="5.92964">
        <ele>2405</ele>
        <time>2008-10-11T13:00:51.000Z</time>
      </trkpt>
      <trkpt lat="45.1299" lon="5.92926">
        <ele>2394</ele>
        <time>2008-10-11T13:02:20.000Z</time>
      </trkpt>
      <trkpt lat="45.12979" lon="5.92885">
        <ele>2383</ele>
        <time>2008-10-11T13:03:46.000Z</time>
      </trkpt>
      <trkpt lat="45.12953" lon="5.92875">
        <ele>2373</ele>
        <time>2008-10-11T13:05:31.000Z</time>
      </trkpt>
      <trkpt lat="45.12931" lon="5.92904">
        <ele>2363</ele>
        <time>2008-10-11T13:06:48.000Z</time>
      </trkpt>
      <trkpt lat="45.12907" lon="5.92873">
        <ele>2352</ele>
        <time>2008-10-11T13:09:32.000Z</time>
      </trkpt>
      <trkpt lat="45.12902" lon="5.92828">
        <ele>2341</ele>
        <time>2008-10-11T13:11:08.000Z</time>
      </trkpt>
      <trkpt lat="45.12906" lon="5.92783">
        <ele>2330</ele>
        <time>2008-10-11T13:12:20.000Z</time>
      </trkpt>
      <trkpt lat="45.12907" lon="5.92734">
        <ele>2318</ele>
        <time>2008-10-11T13:13:28.000Z</time>
      </trkpt>
      <trkpt lat="45.12911" lon="5.92685">
        <ele>2306</ele>
        <time>2008-10-11T13:14:23.000Z</time>
      </trkpt>
      <trkpt lat="45.12913" lon="5.92638">
        <ele>2295</ele>
        <time>2008-10-11T13:15:34.000Z</time>
      </trkpt>
      <trkpt lat="45.12896" lon="5.92623">
        <ele>2289</ele>
        <time>2008-10-11T13:16:40.000Z</time>
      </trkpt>
      <trkpt lat="45.12875" lon="5.92586">
        <ele>2280</ele>
        <time>2008-10-11T13:17:42.000Z</time>
      </trkpt>
      <trkpt lat="45.12854" lon="5.92545">
        <ele>2270</ele>
        <time>2008-10-11T13:18:22.000Z</time>
      </trkpt>
      <trkpt lat="45.1285" lon="5.92496">
        <ele>2260</ele>
        <time>2008-10-11T13:19:04.000Z</time>
      </trkpt>
      <trkpt lat="45.12858" lon="5.9246">
        <ele>2250</ele>
        <time>2008-10-11T13:20:28.000Z</time>
      </trkpt>
      <trkpt lat="45.12859" lon="5.92418">
        <ele>2240</ele>
        <time>2008-10-11T13:22:14.000Z</time>
      </trkpt>
      <trkpt lat="45.1286" lon="5.92376">
        <ele>2227</ele>
        <time>2008-10-11T13:23:23.000Z</time>
      </trkpt>
      <trkpt lat="45.12852" lon="5.92333">
        <ele>2214</ele>
        <time>2008-10-11T13:24:34.000Z</time>
      </trkpt>
      <trkpt lat="45.12843" lon="5.92299">
        <ele>2203</ele>
        <time>2008-10-11T13:26:34.000Z</time>
      </trkpt>
      <trkpt lat="45.12827" lon="5.92273">
        <ele>2194</ele>
        <time>2008-10-11T13:29:05.000Z</time>
      </trkpt>
      <trkpt lat="45.12804" lon="5.9224">
        <ele>2185</ele>
        <time>2008-10-11T13:30:16.000Z</time>
      </trkpt>
      <trkpt lat="45.12811" lon="5.92191">
        <ele>2174</ele>
        <time>2008-10-11T13:31:12.000Z</time>
      </trkpt>
      <trkpt lat="45.12822" lon="5.92151">
        <ele>2165</ele>
        <time>2008-10-11T13:32:22.000Z</time>
      </trkpt>
      <trkpt lat="45.12838" lon="5.9211">
        <ele>2154</ele>
        <time>2008-10-11T13:33:43.000Z</time>
      </trkpt>
      <trkpt lat="45.12853" lon="5.92067">
        <ele>2143</ele>
        <time>2008-10-11T13:35:33.000Z</time>
      </trkpt>
      <trkpt lat="45.12849" lon="5.92036">
        <ele>2136</ele>
        <time>2008-10-11T13:36:44.000Z</time>
      </trkpt>
      <trkpt lat="45.12856" lon="5.92002">
        <ele>2130</ele>
        <time>2008-10-11T13:38:05.000Z</time>
      </trkpt>
      <trkpt lat="45.12848" lon="5.91959">
        <ele>2123</ele>
        <time>2008-10-11T13:40:44.000Z</time>
      </trkpt>
      <trkpt lat="45.12835" lon="5.91924">
        <ele>2119</ele>
        <time>2008-10-11T13:47:10.000Z</time>
      </trkpt>
      <trkpt lat="45.12813" lon="5.91883">
        <ele>2119</ele>
        <time>2008-10-11T13:47:52.000Z</time>
      </trkpt>
      <trkpt lat="45.12789" lon="5.91845">
        <ele>2119</ele>
        <time>2008-10-11T13:48:40.000Z</time>
      </trkpt>
      <trkpt lat="45.12773" lon="5.91811">
        <ele>2120</ele>
        <time>2008-10-11T13:49:52.000Z</time>
      </trkpt>
      <trkpt lat="45.12755" lon="5.91767">
        <ele>2123</ele>
        <time>2008-10-11T13:50:34.000Z</time>
      </trkpt>
      <trkpt lat="45.12731" lon="5.91731">
        <ele>2126</ele>
        <time>2008-10-11T13:51:23.000Z</time>
      </trkpt>
      <trkpt lat="45.12721" lon="5.91682">
        <ele>2130</ele>
        <time>2008-10-11T13:52:04.000Z</time>
      </trkpt>
      <trkpt lat="45.12706" lon="5.91638">
        <ele>2132</ele>
        <time>2008-10-11T13:52:55.000Z</time>
      </trkpt>
      <trkpt lat="45.1269" lon="5.91595">
        <ele>2135</ele>
        <time>2008-10-11T13:53:55.000Z</time>
      </trkpt>
      <trkpt lat="45.12681" lon="5.91549">
        <ele>2137</ele>
        <time>2008-10-11T13:54:37.000Z</time>
      </trkpt>
      <trkpt lat="45.12671" lon="5.91499">
        <ele>2139</ele>
        <time>2008-10-11T13:55:11.000Z</time>
      </trkpt>
      <trkpt lat="45.12656" lon="5.91452">
        <ele>2140</ele>
        <time>2008-10-11T13:55:44.000Z</time>
      </trkpt>
      <trkpt lat="45.12638" lon="5.91408">
        <ele>2143</ele>
        <time>2008-10-11T13:56:21.000Z</time>
      </trkpt>
      <trkpt lat="45.12612" lon="5.91376">
        <ele>2147</ele>
        <time>2008-10-11T13:56:58.000Z</time>
      </trkpt>
      <trkpt lat="45.12597" lon="5.91329">
        <ele>2151</ele>
        <time>2008-10-11T13:57:46.000Z</time>
      </trkpt>
      <trkpt lat="45.12577" lon="5.91288">
        <ele>2156</ele>
        <time>2008-10-11T13:58:58.000Z</time>
      </trkpt>
      <trkpt lat="45.1255" lon="5.91251">
        <ele>2161</ele>
        <time>2008-10-11T13:59:43.000Z</time>
      </trkpt>
      <trkpt lat="45.12522" lon="5.91217">
        <ele>2166</ele>
        <time>2008-10-11T14:00:30.000Z</time>
      </trkpt>
      <trkpt lat="45.12492" lon="5.91196">
        <ele>2172</ele>
        <time>2008-10-11T14:02:02.000Z</time>
      </trkpt>
      <trkpt lat="45.12459" lon="5.91223">
        <ele>2179</ele>
        <time>2008-10-11T14:02:34.000Z</time>
      </trkpt>
      <trkpt lat="45.12429" lon="5.91253">
        <ele>2187</ele>
        <time>2008-10-11T14:03:17.000Z</time>
      </trkpt>
      <trkpt lat="45.12404" lon="5.91268">
        <ele>2194</ele>
        <time>2008-10-11T14:05:10.000Z</time>
      </trkpt>
      <trkpt lat="45.12377" lon="5.91292">
        <ele>2204</ele>
        <time>2008-10-11T14:07:14.000Z</time>
      </trkpt>
      <trkpt lat="45.12358" lon="5.91332">
        <ele>2215</ele>
        <time>2008-10-11T14:08:02.000Z</time>
      </trkpt>
      <trkpt lat="45.12337" lon="5.91365">
        <ele>2225</ele>
        <time>2008-10-11T14:09:22.000Z</time>
      </trkpt>
      <trkpt lat="45.12315" lon="5.91402">
        <ele>2234</ele>
        <time>2008-10-11T14:10:34.000Z</time>
      </trkpt>
      <trkpt lat="45.12295" lon="5.91442">
        <ele>2243</ele>
        <time>2008-10-11T14:11:28.000Z</time>
      </trkpt>
      <trkpt lat="45.12289" lon="5.91452">
        <ele>2243</ele>
        <time>2008-10-11T14:16:33.000Z</time>
      </trkpt>
      <trkpt lat="45.12313" lon="5.91418">
        <ele>2236</ele>
        <time>2008-10-11T14:17:30.000Z</time>
      </trkpt>
      <trkpt lat="45.12331" lon="5.91377">
        <ele>2228</ele>
        <time>2008-10-11T14:18:26.000Z</time>
      </trkpt>
      <trkpt lat="45.12356" lon="5.91344">
        <ele>2219</ele>
        <time>2008-10-11T14:19:37.000Z</time>
      </trkpt>
      <trkpt lat="45.12368" lon="5.91297">
        <ele>2208</ele>
        <time>2008-10-11T14:20:25.000Z</time>
      </trkpt>
      <trkpt lat="45.12396" lon="5.91274">
        <ele>2198</ele>
        <time>2008-10-11T14:21:33.000Z</time>
      </trkpt>
      <trkpt lat="45.12418" lon="5.91265">
        <ele>2193</ele>
        <time>2008-10-11T14:23:18.000Z</time>
      </trkpt>
      <trkpt lat="45.12445" lon="5.91238">
        <ele>2187</ele>
        <time>2008-10-11T14:24:13.000Z</time>
      </trkpt>
      <trkpt lat="45.12474" lon="5.91207">
        <ele>2181</ele>
        <time>2008-10-11T14:24:53.000Z</time>
      </trkpt>
      <trkpt lat="45.12503" lon="5.91189">
        <ele>2179</ele>
        <time>2008-10-11T14:29:04.000Z</time>
      </trkpt>
      <trkpt lat="45.12523" lon="5.91148">
        <ele>2179</ele>
        <time>2008-10-11T14:29:43.000Z</time>
      </trkpt>
      <trkpt lat="45.12536" lon="5.91099">
        <ele>2179</ele>
        <time>2008-10-11T14:30:21.000Z</time>
      </trkpt>
      <trkpt lat="45.12556" lon="5.91057">
        <ele>2181</ele>
        <time>2008-10-11T14:30:57.000Z</time>
      </trkpt>
      <trkpt lat="45.1258" lon="5.91018">
        <ele>2184</ele>
        <time>2008-10-11T14:31:35.000Z</time>
      </trkpt>
      <trkpt lat="45.12595" lon="5.90972">
        <ele>2188</ele>
        <time>2008-10-11T14:32:12.000Z</time>
      </trkpt>
      <trkpt lat="45.12596" lon="5.9092">
        <ele>2192</ele>
        <time>2008-10-11T14:32:46.000Z</time>
      </trkpt>
      <trkpt lat="45.12596" lon="5.90867">
        <ele>2198</ele>
        <time>2008-10-11T14:33:30.000Z</time>
      </trkpt>
      <trkpt lat="45.12599" lon="5.90816">
        <ele>2204</ele>
        <time>2008-10-11T14:34:19.000Z</time>
      </trkpt>
      <trkpt lat="45.12616" lon="5.90772">
        <ele>2210</ele>
        <time>2008-10-11T14:35:08.000Z</time>
      </trkpt>
      <trkpt lat="45.1262" lon="5.90722">
        <ele>2217</ele>
        <time>2008-10-11T14:36:03.000Z</time>
      </trkpt>
      <trkpt lat="45.12625" lon="5.9067">
        <ele>2224</ele>
        <time>2008-10-11T14:37:01.000Z</time>
      </trkpt>
      <trkpt lat="45.12617" lon="5.90617">
        <ele>2231</ele>
        <time>2008-10-11T14:38:01.000Z</time>
      </trkpt>
      <trkpt lat="45.12601" lon="5.90568">
        <ele>2237</ele>
        <time>2008-10-11T14:38:57.000Z</time>
      </trkpt>
      <trkpt lat="45.12597" lon="5.90516">
        <ele>2243</ele>
        <time>2008-10-11T14:39:37.000Z</time>
      </trkpt>
      <trkpt lat="45.12599" lon="5.90465">
        <ele>2247</ele>
        <time>2008-10-11T14:40:18.000Z</time>
      </trkpt>
      <trkpt lat="45.12595" lon="5.90414">
        <ele>2249</ele>
        <time>2008-10-11T14:40:54.000Z</time>
      </trkpt>
      <trkpt lat="45.12582" lon="5.90366">
        <ele>2251</ele>
        <time>2008-10-11T14:41:31.000Z</time>
      </trkpt>
      <trkpt lat="45.12574" lon="5.90318">
        <ele>2252</ele>
        <time>2008-10-11T14:42:38.000Z</time>
      </trkpt>
      <trkpt lat="45.12575" lon="5.90267">
        <ele>2252</ele>
        <time>2008-10-11T14:43:24.000Z</time>
      </trkpt>
      <trkpt lat="45.12592" lon="5.90259">
        <ele>2252</ele>
        <time>2008-10-11T14:46:32.000Z</time>
      </trkpt>
      <trkpt lat="45.12572" lon="5.90294">
        <ele>2249</ele>
        <time>2008-10-11T14:48:06.000Z</time>
      </trkpt>
      <trkpt lat="45.12539" lon="5.90277">
        <ele>2244</ele>
        <time>2008-10-11T14:48:48.000Z</time>
      </trkpt>
      <trkpt lat="45.12506" lon="5.90253">
        <ele>2239</ele>
        <time>2008-10-11T14:49:40.000Z</time>
      </trkpt>
      <trkpt lat="45.12469" lon="5.90247">
        <ele>2233</ele>
        <time>2008-10-11T14:50:25.000Z</time>
      </trkpt>
      <trkpt lat="45.1244" lon="5.90236">
        <ele>2228</ele>
        <time>2008-10-11T14:51:25.000Z</time>
      </trkpt>
      <trkpt lat="45.12426" lon="5.90188">
        <ele>2222</ele>
        <time>2008-10-11T14:52:07.000Z</time>
      </trkpt>
      <trkpt lat="45.12393" lon="5.90161">
        <ele>2216</ele>
        <time>2008-10-11T14:52:43.000Z</time>
      </trkpt>
      <trkpt lat="45.12364" lon="5.9013">
        <ele>2209</ele>
        <time>2008-10-11T14:53:36.000Z</time>
      </trkpt>
      <trkpt lat="45.12338" lon="5.90092">
        <ele>2203</ele>
        <time>2008-10-11T14:54:07.000Z</time>
      </trkpt>
      <trkpt lat="45.12305" lon="5.90063">
        <ele>2196</ele>
        <time>2008-10-11T14:54:37.000Z</time>
      </trkpt>
      <trkpt lat="45.12273" lon="5.90035">
        <ele>2189</ele>
        <time>2008-10-11T14:55:10.000Z</time>
      </trkpt>
      <trkpt lat="45.12238" lon="5.90013">
        <ele>2182</ele>
        <time>2008-10-11T14:55:49.000Z</time>
      </trkpt>
      <trkpt lat="45.12207" lon="5.89986">
        <ele>2176</ele>
        <time>2008-10-11T14:56:42.000Z</time>
      </trkpt>
      <trkpt lat="45.12169" lon="5.89977">
        <ele>2171</ele>
        <time>2008-10-11T14:57:21.000Z</time>
      </trkpt>
      <trkpt lat="45.1213" lon="5.89973">
        <ele>2166</ele>
        <time>2008-10-11T14:57:54.000Z</time>
      </trkpt>
      <trkpt lat="45.12094" lon="5.8996">
        <ele>2162</ele>
        <time>2008-10-11T14:58:25.000Z</time>
      </trkpt>
      <trkpt lat="45.1206" lon="5.89932">
        <ele>2159</ele>
        <time>2008-10-11T14:58:56.000Z</time>
      </trkpt>
      <trkpt lat="45.12031" lon="5.89899">
        <ele>2155</ele>
        <time>2008-10-11T14:59:26.000Z</time>
      </trkpt>
      <trkpt lat="45.12003" lon="5.89864">
        <ele>2153</ele>
        <time>2008-10-11T14:59:57.000Z</time>
      </trkpt>
      <trkpt lat="45.1198" lon="5.89822">
        <ele>2150</ele>
        <time>2008-10-11T15:00:28.000Z</time>
      </trkpt>
      <trkpt lat="45.1195" lon="5.89789">
        <ele>2147</ele>
        <time>2008-10-11T15:00:59.000Z</time>
      </trkpt>
      <trkpt lat="45.11915" lon="5.89768">
        <ele>2143</ele>
        <time>2008-10-11T15:01:31.000Z</time>
      </trkpt>
      <trkpt lat="45.11877" lon="5.89765">
        <ele>2140</ele>
        <time>2008-10-11T15:02:02.000Z</time>
      </trkpt>
      <trkpt lat="45.11839" lon="5.89753">
        <ele>2137</ele>
        <time>2008-10-11T15:02:34.000Z</time>
      </trkpt>
      <trkpt lat="45.11803" lon="5.89739">
        <ele>2133</ele>
        <time>2008-10-11T15:03:04.000Z</time>
      </trkpt>
      <trkpt lat="45.11766" lon="5.89729">
        <ele>2129</ele>
        <time>2008-10-11T15:03:34.000Z</time>
      </trkpt>
      <trkpt lat="45.11728" lon="5.89728">
        <ele>2125</ele>
        <time>2008-10-11T15:04:05.000Z</time>
      </trkpt>
      <trkpt lat="45.1169" lon="5.89728">
        <ele>2118</ele>
        <time>2008-10-11T15:04:41.000Z</time>
      </trkpt>
      <trkpt lat="45.11653" lon="5.89738">
        <ele>2110</ele>
        <time>2008-10-11T15:05:21.000Z</time>
      </trkpt>
      <trkpt lat="45.11623" lon="5.89722">
        <ele>2103</ele>
        <time>2008-10-11T15:06:00.000Z</time>
      </trkpt>
      <trkpt lat="45.11626" lon="5.89672">
        <ele>2094</ele>
        <time>2008-10-11T15:06:38.000Z</time>
      </trkpt>
      <trkpt lat="45.11614" lon="5.89658">
        <ele>2089</ele>
        <time>2008-10-11T15:07:21.000Z</time>
      </trkpt>
      <trkpt lat="45.11591" lon="5.8964">
        <ele>2081</ele>
        <time>2008-10-11T15:08:07.000Z</time>
      </trkpt>
      <trkpt lat="45.11589" lon="5.89598">
        <ele>2072</ele>
        <time>2008-10-11T15:08:48.000Z</time>
      </trkpt>
      <trkpt lat="45.11569" lon="5.89545">
        <ele>2060</ele>
        <time>2008-10-11T15:09:40.000Z</time>
      </trkpt>
      <trkpt lat="45.11547" lon="5.89502">
        <ele>2050</ele>
        <time>2008-10-11T15:10:24.000Z</time>
      </trkpt>
      <trkpt lat="45.11526" lon="5.89458">
        <ele>2040</ele>
        <time>2008-10-11T15:11:02.000Z</time>
      </trkpt>
      <trkpt lat="45.11507" lon="5.89412">
        <ele>2031</ele>
        <time>2008-10-11T15:11:45.000Z</time>
      </trkpt>
      <trkpt lat="45.11482" lon="5.89372">
        <ele>2023</ele>
        <time>2008-10-11T15:12:26.000Z</time>
      </trkpt>
      <trkpt lat="45.11453" lon="5.89337">
        <ele>2014</ele>
        <time>2008-10-11T15:13:08.000Z</time>
      </trkpt>
      <trkpt lat="45.11428" lon="5.89298">
        <ele>2007</ele>
        <time>2008-10-11T15:13:52.000Z</time>
      </trkpt>
      <trkpt lat="45.11403" lon="5.89256">
        <ele>1999</ele>
        <time>2008-10-11T15:14:29.000Z</time>
      </trkpt>
      <trkpt lat="45.11378" lon="5.8922">
        <ele>1992</ele>
        <time>2008-10-11T15:15:07.000Z</time>
      </trkpt>
      <trkpt lat="45.11352" lon="5.89182">
        <ele>1984</ele>
        <time>2008-10-11T15:15:51.000Z</time>
      </trkpt>
      <trkpt lat="45.11321" lon="5.89154">
        <ele>1977</ele>
        <time>2008-10-11T15:16:49.000Z</time>
      </trkpt>
      <trkpt lat="45.11291" lon="5.89122">
        <ele>1970</ele>
        <time>2008-10-11T15:17:37.000Z</time>
      </trkpt>
      <trkpt lat="45.11269" lon="5.89078">
        <ele>1964</ele>
        <time>2008-10-11T15:18:11.000Z</time>
      </trkpt>
      <trkpt lat="45.11253" lon="5.89036">
        <ele>1959</ele>
        <time>2008-10-11T15:18:45.000Z</time>
      </trkpt>
      <trkpt lat="45.11261" lon="5.88986">
        <ele>1954</ele>
        <time>2008-10-11T15:19:31.000Z</time>
      </trkpt>
      <trkpt lat="45.11274" lon="5.88938">
        <ele>1950</ele>
        <time>2008-10-11T15:20:14.000Z</time>
      </trkpt>
      <trkpt lat="45.11282" lon="5.88889">
        <ele>1945</ele>
        <time>2008-10-11T15:20:51.000Z</time>
      </trkpt>
      <trkpt lat="45.1128" lon="5.88836">
        <ele>1939</ele>
        <time>2008-10-11T15:21:28.000Z</time>
      </trkpt>
      <trkpt lat="45.11282" lon="5.88784">
        <ele>1931</ele>
        <time>2008-10-11T15:22:12.000Z</time>
      </trkpt>
      <trkpt lat="45.11279" lon="5.88733">
        <ele>1924</ele>
        <time>2008-10-11T15:22:52.000Z</time>
      </trkpt>
      <trkpt lat="45.11279" lon="5.88681">
        <ele>1917</ele>
        <time>2008-10-11T15:23:29.000Z</time>
      </trkpt>
      <trkpt lat="45.11281" lon="5.88627">
        <ele>1910</ele>
        <time>2008-10-11T15:24:06.000Z</time>
      </trkpt>
      <trkpt lat="45.11286" lon="5.88576">
        <ele>1903</ele>
        <time>2008-10-11T15:24:41.000Z</time>
      </trkpt>
      <trkpt lat="45.1128" lon="5.88523">
        <ele>1897</ele>
        <time>2008-10-11T15:25:13.000Z</time>
      </trkpt>
      <trkpt lat="45.11265" lon="5.88479">
        <ele>1892</ele>
        <time>2008-10-11T15:26:02.000Z</time>
      </trkpt>
      <trkpt lat="45.1126" lon="5.88425">
        <ele>1886</ele>
        <time>2008-10-11T15:26:40.000Z</time>
      </trkpt>
      <trkpt lat="45.11248" lon="5.88375">
        <ele>1878</ele>
        <time>2008-10-11T15:27:20.000Z</time>
      </trkpt>
      <trkpt lat="45.11225" lon="5.88333">
        <ele>1870</ele>
        <time>2008-10-11T15:28:03.000Z</time>
      </trkpt>
      <trkpt lat="45.11207" lon="5.88288">
        <ele>1861</ele>
        <time>2008-10-11T15:28:47.000Z</time>
      </trkpt>
      <trkpt lat="45.11189" lon="5.88241">
        <ele>1852</ele>
        <time>2008-10-11T15:29:31.000Z</time>
      </trkpt>
      <trkpt lat="45.11172" lon="5.88195">
        <ele>1842</ele>
        <time>2008-10-11T15:30:20.000Z</time>
      </trkpt>
      <trkpt lat="45.11152" lon="5.88149">
        <ele>1832</ele>
        <time>2008-10-11T15:31:05.000Z</time>
      </trkpt>
      <trkpt lat="45.11147" lon="5.88097">
        <ele>1823</ele>
        <time>2008-10-11T15:31:47.000Z</time>
      </trkpt>
      <trkpt lat="45.11148" lon="5.88058">
        <ele>1817</ele>
        <time>2008-10-11T15:33:30.000Z</time>
      </trkpt>
      <trkpt lat="45.1115" lon="5.88007">
        <ele>1809</ele>
        <time>2008-10-11T15:33:55.000Z</time>
      </trkpt>
      <trkpt lat="45.11127" lon="5.87967">
        <ele>1803</ele>
        <time>2008-10-11T15:34:22.000Z</time>
      </trkpt>
      <trkpt lat="45.11104" lon="5.87923">
        <ele>1797</ele>
        <time>2008-10-11T15:34:52.000Z</time>
      </trkpt>
      <trkpt lat="45.11082" lon="5.87882">
        <ele>1791</ele>
        <time>2008-10-11T15:35:22.000Z</time>
      </trkpt>
      <trkpt lat="45.11053" lon="5.87852">
        <ele>1786</ele>
        <time>2008-10-11T15:35:51.000Z</time>
      </trkpt>
      <trkpt lat="45.11031" lon="5.8781">
        <ele>1780</ele>
        <time>2008-10-11T15:36:24.000Z</time>
      </trkpt>
      <trkpt lat="45.11021" lon="5.8776">
        <ele>1775</ele>
        <time>2008-10-11T15:37:03.000Z</time>
      </trkpt>
      <trkpt lat="45.1102" lon="5.87714">
        <ele>1771</ele>
        <time>2008-10-11T15:37:46.000Z</time>
      </trkpt>
      <trkpt lat="45.11004" lon="5.87669">
        <ele>1769</ele>
        <time>2008-10-11T15:38:24.000Z</time>
      </trkpt>
      <trkpt lat="45.11001" lon="5.87616">
        <ele>1766</ele>
        <time>2008-10-11T15:39:05.000Z</time>
      </trkpt>
      <trkpt lat="45.10956" lon="5.87594">
        <ele>1764</ele>
        <time>2008-10-11T15:39:50.000Z</time>
      </trkpt>
      <trkpt lat="45.10909" lon="5.87587">
        <ele>1762</ele>
        <time>2008-10-11T15:40:34.000Z</time>
      </trkpt>
      <trkpt lat="45.10872" lon="5.87572">
        <ele>1761</ele>
        <time>2008-10-11T15:41:14.000Z</time>
      </trkpt>
      <trkpt lat="45.10835" lon="5.87569">
        <ele>1760</ele>
        <time>2008-10-11T15:41:50.000Z</time>
      </trkpt>
      <trkpt lat="45.10797" lon="5.87565">
        <ele>1758</ele>
        <time>2008-10-11T15:42:21.000Z</time>
      </trkpt>
      <trkpt lat="45.10759" lon="5.87557">
        <ele>1757</ele>
        <time>2008-10-11T15:42:51.000Z</time>
      </trkpt>
      <trkpt lat="45.10722" lon="5.87549">
        <ele>1755</ele>
        <time>2008-10-11T15:43:22.000Z</time>
      </trkpt>
      <trkpt lat="45.10684" lon="5.87552">
        <ele>1754</ele>
        <time>2008-10-11T15:43:55.000Z</time>
      </trkpt>
      <trkpt lat="45.10651" lon="5.87544">
        <ele>1753</ele>
        <time>2008-10-11T15:44:31.000Z</time>
      </trkpt>
      <trkpt lat="45.10624" lon="5.87541">
        <ele>1753</ele>
        <time>2008-10-11T15:45:46.000Z</time>
      </trkpt>
    </trkseg>
  </trk>
</gpx>